Time;durP1;ratioP1;P1;durP2;ratioP2;P2;SDS_P1;SDS_P2;PMS_P1;PMS_P2;Temp;Humidity;BMP_temperature;BMP_pressure;BME280_temperature;BME280_humidity;BME280_pressure;Samples;Min_cycle;Max_cycle;Signal;HPM_P1;HPM_P2
2022/03/28 00:00:12;;;;;;;5.63;2.80;;;;;;;7.90;100.00;102923.09;5066193;28;20051;-29
2022/03/28 00:02:41;;;;;;;4.63;2.85;;;;;;;7.89;100.00;102932.50;5061564;28;20055;-31
2022/03/28 00:05:10;;;;;;;6.40;3.08;;;;;;;7.89;100.00;102921.38;5066618;28;20049;-29
2022/03/28 00:07:38;;;;;;;3.95;2.60;;;;;;;7.88;100.00;102917.75;5060922;28;20140;-29
2022/03/28 00:10:06;;;;;;;6.32;3.67;;;;;;;7.88;100.00;102923.31;5066395;28;20045;-28
2022/03/28 00:12:34;;;;;;;5.68;3.50;;;;;;;7.87;100.00;102918.84;5062349;28;20406;-30
2022/03/28 00:15:04;;;;;;;4.82;3.67;;;;;;;7.87;100.00;102926.31;5066256;28;20044;-28
2022/03/28 00:17:36;;;;;;;3.95;2.88;;;;;;;7.85;100.00;102918.22;5064133;28;20094;-29
2022/03/28 00:20:05;;;;;;;5.80;2.80;;;;;;;7.87;100.00;102924.41;5064833;28;20045;-29
2022/03/28 00:22:33;;;;;;;4.95;2.78;;;;;;;7.90;100.00;102914.75;5043233;28;20060;-32
2022/03/28 00:25:01;;;;;;;5.78;4.22;;;;;;;7.92;100.00;102916.22;5060645;28;20075;-28
2022/03/28 00:27:28;;;;;;;5.97;4.22;;;;;;;7.93;100.00;102915.16;5061341;28;20474;-28
2022/03/28 00:29:56;;;;;;;9.40;4.07;;;;;;;7.93;100.00;102912.38;5066470;28;20565;-28
2022/03/28 00:32:25;;;;;;;5.82;4.05;;;;;;;7.94;100.00;102914.06;5051438;28;20517;-29
2022/03/28 00:34:55;;;;;;;9.00;4.60;;;;;;;7.96;100.00;102902.72;5059628;28;20052;-29
2022/03/28 00:37:22;;;;;;;6.63;4.70;;;;;;;7.97;100.00;102906.34;5065246;28;20063;-28
2022/03/28 00:39:50;;;;;;;6.18;4.43;;;;;;;7.97;100.00;102906.34;5065302;28;20048;-28
2022/03/28 00:42:18;;;;;;;9.57;5.72;;;;;;;7.98;100.00;102905.28;5064576;28;20056;-29
2022/03/28 00:44:47;;;;;;;6.53;4.43;;;;;;;7.97;100.00;102900.78;5063376;28;20052;-30
2022/03/28 00:47:14;;;;;;;7.18;5.03;;;;;;;7.94;100.00;102902.94;5066135;28;20052;-29
2022/03/28 00:49:42;;;;;;;6.35;4.60;;;;;;;7.92;100.00;102902.31;5060478;28;20048;-30
2022/03/28 00:52:11;;;;;;;7.65;5.07;;;;;;;7.93;100.00;102905.97;5066039;28;20420;-31
2022/03/28 00:54:39;;;;;;;10.30;5.57;;;;;;;7.92;100.00;102895.91;5043277;28;20040;-29
2022/03/28 00:57:07;;;;;;;8.27;5.00;;;;;;;7.93;100.00;102905.97;5062197;28;20051;-28
2022/03/28 00:59:37;;;;;;;7.85;4.85;;;;;;;7.94;100.00;102896.53;5063704;28;20048;-29
2022/03/28 01:02:06;;;;;;;6.40;4.95;;;;;;;7.90;100.00;102898.94;5058989;28;20053;-30
2022/03/28 01:04:34;;;;;;;6.57;5.35;;;;;;;7.85;100.00;102901.53;5068096;28;20385;-30
2022/03/28 01:07:02;;;;;;;7.60;5.72;;;;;;;7.79;100.00;102893.31;5058804;28;20207;-28
2022/03/28 01:09:31;;;;;;;8.50;6.05;;;;;;;7.75;100.00;102886.50;5062638;28;20143;-27
2022/03/28 01:12:00;;;;;;;9.23;5.65;;;;;;;7.69;100.00;102877.16;5040554;28;20436;-27
2022/03/28 01:14:28;;;;;;;9.80;6.35;;;;;;;7.67;100.00;102884.84;5062028;28;20041;-29
2022/03/28 01:19:41;;;;;;;6.32;4.40;;;;;;;7.62;100.00;102884.69;5062157;28;20086;-28
2022/03/28 01:22:10;;;;;;;7.07;5.30;;;;;;;7.64;100.00;102878.91;5059413;28;20489;-32
2022/03/28 01:24:39;;;;;;;7.93;5.75;;;;;;;7.64;100.00;102868.66;5059111;28;20040;-29
2022/03/28 01:27:08;;;;;;;6.13;4.18;;;;;;;7.61;100.00;102860.75;5059509;28;20136;-27
2022/03/28 01:29:36;;;;;;;6.53;4.68;;;;;;;7.60;100.00;102859.06;5060572;28;20045;-33
2022/03/28 01:32:04;;;;;;;7.10;5.68;;;;;;;7.60;100.00;102847.94;5057492;28;20401;-32
2022/03/28 01:34:32;;;;;;;8.20;5.55;;;;;;;7.58;100.00;102847.34;5060775;28;20044;-30
2022/03/28 01:37:00;;;;;;;8.00;6.10;;;;;;;7.60;100.00;102840.47;5041008;28;20053;-28
2022/03/28 01:39:29;;;;;;;7.68;5.25;;;;;;;7.61;100.00;102844.94;5058660;28;20055;-28
2022/03/28 01:41:56;;;;;;;5.53;4.25;;;;;;;7.63;100.00;102843.88;5059306;28;20053;-28
2022/03/28 01:44:24;;;;;;;6.85;3.72;;;;;;;7.64;100.00;102835.31;5058770;28;20402;-29
2022/03/28 01:46:52;;;;;;;6.15;4.75;;;;;;;7.66;100.00;102835.06;5060868;28;20052;-32
2022/03/28 01:49:20;;;;;;;7.55;5.15;;;;;;;7.66;100.00;102832.28;5058067;28;20056;-29
2022/03/28 01:51:50;;;;;;;5.68;4.13;;;;;;;7.65;100.00;102837.00;5051101;28;20053;-29
2022/03/28 01:54:18;;;;;;;6.30;4.75;;;;;;;7.64;100.00;102834.44;5057883;28;20072;-28
2022/03/28 01:56:47;;;;;;;6.45;4.75;;;;;;;7.64;100.00;102826.97;5062946;28;20047;-28
2022/03/28 01:59:15;;;;;;;5.50;4.20;;;;;;;7.65;100.00;102825.88;5057266;28;20509;-29
2022/03/28 02:01:42;;;;;;;6.35;4.22;;;;;;;7.66;100.00;102824.81;5062824;28;20131;-29
2022/03/28 02:04:10;;;;;;;5.80;4.65;;;;;;;7.67;100.00;102823.72;5056894;28;20523;-28
2022/03/28 02:06:38;;;;;;;6.18;4.18;;;;;;;7.68;100.00;102819.88;5062113;28;20044;-28
2022/03/28 02:09:06;;;;;;;5.55;4.13;;;;;;;7.68;100.00;102813.47;5057576;28;20049;-27
2022/03/28 02:11:35;;;;;;;4.57;2.90;;;;;;;7.69;100.00;102813.22;5063269;28;20067;-28
2022/03/28 02:14:04;;;;;;;7.50;5.22;;;;;;;7.71;100.00;102801.88;5056878;28;20051;-28
2022/03/28 02:16:32;;;;;;;5.43;3.75;;;;;;;7.69;100.00;102804.91;5061050;28;20043;-28
2022/03/28 02:19:00;;;;;;;6.68;4.65;;;;;;;7.68;100.00;102792.09;5058686;28;20048;-30
2022/03/28 02:21:27;;;;;;;6.30;4.50;;;;;;;7.68;100.00;102796.78;5058138;28;20493;-28
2022/03/28 02:23:55;;;;;;;5.13;4.00;;;;;;;7.68;100.00;102794.00;5064005;28;20037;-28
2022/03/28 02:26:23;;;;;;;7.30;4.55;;;;;;;7.67;100.00;102790.38;5044705;28;20061;-29
2022/03/28 02:28:50;;;;;;;7.30;4.68;;;;;;;7.68;100.00;102785.69;5063726;28;20051;-27
2022/03/28 02:31:20;;;;;;;5.95;4.93;;;;;;;7.68;100.00;102792.09;5062634;28;20052;-28
2022/03/28 02:33:47;;;;;;;4.95;3.15;;;;;;;7.68;100.00;102794.00;5063234;28;20053;-31
2022/03/28 02:36:15;;;;;;;6.05;4.47;;;;;;;7.67;100.00;102789.53;5063720;28;20060;-28
2022/03/28 02:38:43;;;;;;;4.70;3.30;;;;;;;7.65;100.00;102792.53;5063388;28;20055;-34
2022/03/28 02:41:11;;;;;;;5.05;3.63;;;;;;;7.65;100.00;102792.53;5063056;28;20049;-32
2022/03/28 02:43:39;;;;;;;5.20;3.88;;;;;;;7.64;100.00;102782.50;5060735;28;20064;-29
2022/03/28 02:46:07;;;;;;;7.28;5.18;;;;;;;7.63;100.00;102772.47;5065106;28;20409;-29
2022/03/28 02:48:37;;;;;;;7.13;4.78;;;;;;;7.63;100.00;102766.06;5058973;28;20048;-31
2022/03/28 02:51:04;;;;;;;4.93;3.97;;;;;;;7.60;100.00;102759.91;5065064;28;20127;-28
2022/03/28 02:53:32;;;;;;;5.03;3.53;;;;;;;7.60;100.00;102762.66;5059407;28;20063;-28
2022/03/28 02:56:00;;;;;;;6.65;4.50;;;;;;;7.60;100.00;102756.25;5060989;28;20502;-29
2022/03/28 02:58:28;;;;;;;6.13;4.30;;;;;;;7.57;100.00;102762.31;5051422;28;20056;-29
2022/03/28 03:00:57;;;;;;;6.40;4.68;;;;;;;7.55;100.00;102753.38;5056657;28;20047;-29
2022/03/28 03:03:25;;;;;;;5.45;4.25;;;;;;;7.55;100.00;102757.00;5059626;28;20135;-29
2022/03/28 03:05:54;;;;;;;5.15;4.13;;;;;;;7.55;100.00;102751.44;5055027;28;20045;-28
2022/03/28 03:08:22;;;;;;;6.07;4.80;;;;;;;7.55;100.00;102740.31;5059870;28;20040;-32
2022/03/28 03:10:50;;;;;;;6.68;4.97;;;;;;;7.56;100.00;102736.47;5036670;28;20577;-30
2022/03/28 03:13:18;;;;;;;7.15;5.65;;;;;;;7.59;100.00;102732.38;5058039;28;20144;-29
2022/03/28 03:15:46;;;;;;;5.50;3.95;;;;;;;7.59;100.00;102733.19;5059455;28;20064;-29
2022/03/28 03:18:13;;;;;;;5.22;3.70;;;;;;;7.60;100.00;102734.03;5043890;28;20528;-29
2022/03/28 03:20:41;;;;;;;4.88;3.90;;;;;;;7.62;100.00;102731.88;5060919;28;20036;-26
2022/03/28 03:23:10;;;;;;;6.45;5.35;;;;;;;7.64;100.00;102734.44;5062413;28;20075;-28
2022/03/28 03:25:38;;;;;;;5.13;4.35;;;;;;;7.63;100.00;102735.50;5061386;28;20060;-29
2022/03/28 03:28:06;;;;;;;5.57;3.60;;;;;;;7.63;100.00;102732.72;5061406;28;20387;-28
2022/03/28 03:30:34;;;;;;;7.22;3.88;;;;;;;7.62;100.00;102731.88;5060740;28;20052;-29
2022/03/28 03:33:02;;;;;;;6.45;5.05;;;;;;;7.62;100.00;102720.78;5061657;28;20136;-28
2022/03/28 03:35:29;;;;;;;7.13;4.90;;;;;;;7.60;100.00;102721.00;5063084;28;20049;-28
2022/03/28 03:37:57;;;;;;;7.07;5.43;;;;;;;7.59;100.00;102726.81;5059307;28;20064;-28
2022/03/28 03:40:26;;;;;;;7.25;5.30;;;;;;;7.57;100.00;102715.94;5062874;28;20059;-28
2022/03/28 03:42:54;;;;;;;5.75;4.50;;;;;;;7.55;100.00;102715.31;5065795;28;20044;-33
2022/03/28 03:45:22;;;;;;;4.43;3.20;;;;;;;7.55;100.00;102712.53;5060215;28;20177;-29
2022/03/28 03:47:50;;;;;;;6.82;4.50;;;;;;;7.54;100.00;102713.63;5067354;28;20041;-29
2022/03/28 03:50:18;;;;;;;5.00;4.20;;;;;;;7.55;100.00;102708.91;5061887;28;20048;-28
2022/03/28 03:52:47;;;;;;;6.82;5.28;;;;;;;7.55;100.00;102704.22;5066081;28;20036;-30
2022/03/28 03:55:16;;;;;;;8.98;5.72;;;;;;;7.56;100.00;102713.38;5061888;28;20047;-28
2022/03/28 03:57:46;;;;;;;9.68;6.07;;;;;;;7.52;100.00;102704.66;5062026;28;20086;-29
2022/03/28 04:00:15;;;;;;;8.13;6.53;;;;;;;7.50;100.00;102703.19;5061506;28;20052;-28
2022/03/28 04:02:43;;;;;;;6.47;4.60;;;;;;;7.46;100.00;102710.31;5067370;28;20076;-29
2022/03/28 04:05:12;;;;;;;7.82;5.53;;;;;;;7.44;100.00;102704.13;5062622;28;20044;-29
2022/03/28 04:07:39;;;;;;;5.38;3.90;;;;;;;7.42;100.00;102707.13;5066225;28;20520;-29
2022/03/28 04:10:08;;;;;;;5.95;4.60;;;;;;;7.41;100.00;102702.66;5065448;28;20053;-29
2022/03/28 04:12:35;;;;;;;4.82;3.63;;;;;;;7.40;100.00;102702.91;5065207;28;20382;-29
2022/03/28 04:15:06;;;;;;;5.70;4.38;;;;;;;7.39;100.00;102707.63;5064724;28;20076;-28
2022/03/28 04:17:40;;;;;;;4.88;3.67;;;;;;;7.41;100.00;102694.34;5066670;28;20041;-27
2022/03/28 04:20:09;;;;;;;5.90;4.13;;;;;;;7.41;100.00;102696.25;5064086;28;20055;-28
2022/03/28 04:22:37;;;;;;;5.93;5.03;;;;;;;7.40;100.00;102694.56;5066158;28;20064;-29
2022/03/28 04:25:06;;;;;;;5.00;3.38;;;;;;;7.38;100.00;102692.03;5064692;28;20094;-28
2022/03/28 04:27:34;;;;;;;7.28;4.50;;;;;;;7.37;100.00;102689.50;5064177;28;20057;-29
2022/03/28 04:30:03;;;;;;;5.18;2.92;;;;;;;7.34;100.00;102684.41;5065567;28;20052;-28
2022/03/28 04:32:32;;;;;;;4.65;3.65;;;;;;;7.34;100.00;102687.19;5065350;28;20429;-32
2022/03/28 04:35:00;;;;;;;5.80;4.25;;;;;;;7.33;100.00;102685.47;5064806;28;20051;-30
2022/03/28 04:37:32;;;;;;;4.63;3.72;;;;;;;7.34;100.00;102678.84;5062830;28;20063;-28
2022/03/28 04:40:00;;;;;;;6.45;3.95;;;;;;;7.34;100.00;102678.84;5066775;28;20044;-30
2022/03/28 04:42:28;;;;;;;7.88;5.18;;;;;;;7.31;100.00;102676.53;5060729;28;20084;-31
2022/03/28 04:44:55;;;;;;;6.35;4.63;;;;;;;7.32;100.00;102664.34;5066612;28;20127;-29
2022/03/28 04:47:23;;;;;;;5.38;3.92;;;;;;;7.32;100.00;102667.13;5060522;28;20040;-29
2022/03/28 04:49:53;;;;;;;4.82;2.90;;;;;;;7.33;100.00;102669.66;5066265;28;20139;-29
2022/03/28 04:52:20;;;;;;;8.38;5.43;;;;;;;7.34;100.00;102667.75;5061254;28;20135;-29
2022/03/28 04:54:48;;;;;;;5.93;4.20;;;;;;;7.30;100.00;102666.50;5065399;28;20045;-28
2022/03/28 04:57:16;;;;;;;8.15;5.63;;;;;;;7.30;100.00;102672.06;5066998;28;20105;-28
2022/03/28 04:59:44;;;;;;;6.43;5.03;;;;;;;7.29;100.00;102665.66;5059021;28;20048;-29
2022/03/28 05:02:11;;;;;;;7.25;6.05;;;;;;;7.26;100.00;102655.88;5062529;28;20048;-29
2022/03/28 05:04:39;;;;;;;8.45;6.10;;;;;;;7.25;100.00;102668.06;5058656;28;20038;-31
2022/03/28 05:07:08;;;;;;;7.75;6.20;;;;;;;7.22;100.00;102665.72;5061162;28;20509;-28
2022/03/28 05:09:36;;;;;;;7.47;6.20;;;;;;;7.22;100.00;102662.97;5058792;28;20409;-28
2022/03/28 05:12:04;;;;;;;7.68;6.03;;;;;;;7.22;100.00;102671.28;5060430;28;20435;-29
2022/03/28 05:14:33;;;;;;;6.65;4.70;;;;;;;7.21;100.00;102658.47;5058871;28;20512;-32
2022/03/28 05:17:00;;;;;;;7.65;5.88;;;;;;;7.22;100.00;102653.78;5059899;28;20123;-29
2022/03/28 05:19:28;;;;;;;8.80;6.78;;;;;;;7.22;100.00;102657.41;5058448;28;20056;-27
2022/03/28 05:21:56;;;;;;;7.60;5.78;;;;;;;7.23;100.00;102647.16;5060126;28;20060;-28
2022/03/28 05:24:25;;;;;;;8.35;6.30;;;;;;;7.24;100.00;102652.47;5058120;28;20045;-28
2022/03/28 05:26:53;;;;;;;10.57;6.82;;;;;;;7.23;100.00;102655.47;5059403;28;20045;-27
2022/03/28 05:29:24;;;;;;;8.90;7.60;;;;;;;7.22;100.00;102665.72;5060295;28;20052;-29
2022/03/28 05:31:52;;;;;;;8.90;6.28;;;;;;;7.17;100.00;102661.97;5058750;28;20076;-28
2022/03/28 05:34:20;;;;;;;9.27;7.53;;;;;;;7.15;100.00;102659.44;5061668;28;20494;-34
2022/03/28 05:36:51;;;;;;;8.50;5.88;;;;;;;7.14;100.00;102656.88;5056914;28;20065;-30
2022/03/28 05:39:19;;;;;;;7.05;5.68;;;;;;;7.14;100.00;102654.97;5063121;28;20048;-29
2022/03/28 05:41:48;;;;;;;9.80;7.10;;;;;;;7.17;100.00;102648.09;5057630;28;20134;-30
2022/03/28 05:44:15;;;;;;;9.40;6.65;;;;;;;7.15;100.00;102648.34;5061916;28;20045;-33
2022/03/28 05:46:43;;;;;;;9.40;6.90;;;;;;;7.14;100.00;102638.31;5057818;28;20056;-29
2022/03/28 05:49:11;;;;;;;7.65;5.97;;;;;;;7.15;100.00;102647.47;5062924;28;20051;-27
2022/03/28 05:51:39;;;;;;;7.30;6.38;;;;;;;7.17;100.00;102648.94;5057166;28;20124;-28
2022/03/28 05:54:10;;;;;;;11.50;8.00;;;;;;;7.18;100.00;102644.25;5063340;28;20075;-28
2022/03/28 05:56:38;;;;;;;10.68;8.13;;;;;;;7.17;100.00;102645.31;5054076;28;20048;-27
2022/03/28 05:59:08;;;;;;;11.35;7.75;;;;;;;7.14;100.00;102637.47;5060315;28;20410;-29
2022/03/28 06:01:36;;;;;;;13.68;9.45;;;;;;;7.14;100.00;102643.00;5056454;28;20382;-29
2022/03/28 06:04:05;;;;;;;9.98;7.07;;;;;;;7.12;100.00;102639.63;5064675;28;20088;-30
2022/03/28 06:06:33;;;;;;;12.25;8.57;;;;;;;7.11;100.00;102643.47;5057043;28;20131;-29
2022/03/28 06:09:01;;;;;;;10.75;8.15;;;;;;;7.12;100.00;102639.63;5051295;28;20060;-28
2022/03/28 06:11:29;;;;;;;12.55;8.73;;;;;;;7.09;100.00;102632.59;5062589;28;20037;-28
2022/03/28 06:13:58;;;;;;;11.27;8.20;;;;;;;7.04;100.00;102635.22;5060683;28;20045;-27
2022/03/28 06:16:27;;;;;;;10.88;8.30;;;;;;;7.00;100.00;102635.91;5054695;28;20155;-28
2022/03/28 06:18:57;;;;;;;10.27;7.18;;;;;;;6.96;100.00;102635.53;5061298;28;20064;-29
2022/03/28 06:21:25;;;;;;;9.60;6.28;;;;;;;6.98;100.00;102644.50;5062492;28;20143;-29
2022/03/28 06:23:54;;;;;;;12.75;8.30;;;;;;;7.02;100.00;102651.25;5062204;28;20421;-29
2022/03/28 06:26:21;;;;;;;11.20;8.10;;;;;;;7.04;100.00;102646.31;5061820;28;20056;-29
2022/03/28 06:28:49;;;;;;;12.27;8.90;;;;;;;7.07;100.00;102642.22;5062729;28;20055;-31
2022/03/28 06:31:17;;;;;;;13.10;9.13;;;;;;;7.07;100.00;102640.31;5060569;28;20048;-27
2022/03/28 06:33:47;;;;;;;7.15;5.82;;;;;;;7.08;100.00;102625.34;5062792;28;20048;-29
2022/03/28 06:36:14;;;;;;;11.10;7.47;;;;;;;7.09;100.00;102623.41;5058604;28;20075;-29
2022/03/28 06:38:42;;;;;;;9.68;7.50;;;;;;;7.07;100.00;102612.53;5063925;28;20053;-32
2022/03/28 06:41:10;;;;;;;6.90;5.60;;;;;;;7.09;100.00;102620.66;5057574;28;20414;-28
2022/03/28 06:43:37;;;;;;;10.23;7.90;;;;;;;7.12;100.00;102632.13;5064116;28;20053;-28
2022/03/28 06:46:05;;;;;;;10.85;8.05;;;;;;;7.13;100.00;102627.44;5058337;28;20056;-29
2022/03/28 06:48:34;;;;;;;8.43;6.22;;;;;;;7.14;100.00;102629.97;5063559;28;20048;-28
2022/03/28 06:51:06;;;;;;;7.78;6.35;;;;;;;7.20;100.00;102623.47;5044049;28;20049;-27
2022/03/28 06:53:33;;;;;;;8.63;5.80;;;;;;;7.22;100.00;102624.09;5067757;28;20077;-28
2022/03/28 06:56:01;;;;;;;6.75;4.80;;;;;;;7.23;100.00;102617.44;5061733;28;20055;-27
2022/03/28 06:58:29;;;;;;;6.28;5.18;;;;;;;7.27;100.00;102615.06;5067241;28;20390;-31
2022/03/28 07:00:57;;;;;;;8.35;6.07;;;;;;;7.30;100.00;102613.75;5063733;28;20037;-29
2022/03/28 07:03:25;;;;;;;8.85;6.35;;;;;;;7.34;100.00;102601.09;5066265;28;20160;-28
2022/03/28 07:05:53;;;;;;;6.65;5.45;;;;;;;7.38;100.00;102600.41;5065806;28;20103;-28
2022/03/28 07:08:22;;;;;;;8.18;5.70;;;;;;;7.44;100.00;102601.38;5065334;28;20057;-28
2022/03/28 07:10:50;;;;;;;8.93;6.22;;;;;;;7.42;100.00;102598.81;5064710;28;20060;-30
2022/03/28 07:13:18;;;;;;;7.63;5.78;;;;;;;7.45;100.00;102603.06;5066859;28;20051;-27
2022/03/28 07:15:45;;;;;;;10.68;7.05;;;;;;;7.46;100.00;102601.97;5062287;28;20143;-27
2022/03/28 07:18:19;;;;;;;8.90;6.63;;;;;;;7.41;100.00;102597.13;5065882;28;20052;-28
2022/03/28 07:20:47;;;;;;;7.60;5.95;;;;;;;7.37;100.00;102600.63;5065806;28;20071;-27
2022/03/28 07:23:14;;;;;;;9.73;6.68;;;;;;;7.40;100.00;102595.44;5064649;28;20048;-31
2022/03/28 07:25:44;;;;;;;8.43;5.85;;;;;;;7.44;100.00;102590.25;5065512;28;20056;-28
2022/03/28 07:28:14;;;;;;;6.18;4.78;;;;;;;7.43;100.00;102602.44;5064018;28;20044;-27
2022/03/28 07:30:42;;;;;;;7.57;4.75;;;;;;;7.46;100.00;102594.50;5066077;28;20053;-28
2022/03/28 07:33:10;;;;;;;6.65;4.57;;;;;;;7.48;100.00;102597.03;5062090;28;20087;-28
2022/03/28 07:35:40;;;;;;;5.25;3.75;;;;;;;7.49;100.00;102588.47;5066568;28;20083;-28
2022/03/28 07:38:10;;;;;;;5.15;3.90;;;;;;;7.52;100.00;102592.72;5042486;28;20048;-27
2022/03/28 07:40:45;;;;;;;5.43;3.95;;;;;;;7.55;100.00;102589.47;5067054;28;20052;-28
2022/03/28 07:43:13;;;;;;;6.35;4.60;;;;;;;7.56;100.00;102583.69;5060547;28;20045;-29
2022/03/28 07:45:42;;;;;;;6.00;4.05;;;;;;;7.59;100.00;102587.91;5066392;28;20047;-30
2022/03/28 07:48:10;;;;;;;5.35;4.00;;;;;;;7.59;100.00;102593.47;5061762;28;20048;-28
2022/03/28 07:50:38;;;;;;;5.45;3.88;;;;;;;7.58;100.00;102598.19;5065899;28;20412;-28
2022/03/28 07:53:06;;;;;;;4.22;3.10;;;;;;;7.66;100.00;102596.13;5061279;28;20066;-27
2022/03/28 07:55:33;;;;;;;5.13;3.78;;;;;;;7.70;100.00;102583.47;5066638;28;20032;-28
2022/03/28 07:58:03;;;;;;;5.63;3.95;;;;;;;7.74;100.00;102579.97;5053995;28;20052;-29
2022/03/28 08:00:31;;;;;;;5.25;3.38;;;;;;;7.80;100.00;102579.00;5064846;28;20068;-29
2022/03/28 08:02:59;;;;;;;3.50;2.72;;;;;;;7.83;100.00;102572.13;5063432;28;20063;-27
2022/03/28 08:05:29;;;;;;;6.30;5.10;;;;;;;7.83;100.00;102572.13;5046491;28;20376;-27
2022/03/28 08:07:57;;;;;;;5.00;3.72;;;;;;;7.83;100.00;102564.63;5064319;28;20053;-29
2022/03/28 08:10:25;;;;;;;6.40;4.10;;;;;;;7.88;100.00;102561.13;5064132;28;20053;-27
2022/03/28 08:12:53;;;;;;;5.38;4.00;;;;;;;7.92;100.00;102552.09;5062731;28;20056;-28
2022/03/28 08:15:23;;;;;;;5.38;3.92;;;;;;;7.93;100.00;102556.56;5065656;28;20045;-29
2022/03/28 08:17:51;;;;;;;5.47;4.22;;;;;;;7.95;100.00;102551.59;5061185;28;20420;-27
2022/03/28 08:20:19;;;;;;;5.22;3.40;;;;;;;8.01;100.00;102555.34;5063893;28;20048;-27
2022/03/28 08:22:49;;;;;;;4.70;3.00;;;;;;;8.09;100.00;102557.78;5063830;28;20044;-27
2022/03/28 08:25:20;;;;;;;4.93;3.28;;;;;;;8.15;100.00;102558.75;5063569;28;20055;-30
2022/03/28 08:27:47;;;;;;;5.90;3.60;;;;;;;8.14;100.00;102559.84;5064597;28;20070;-29
2022/03/28 08:30:16;;;;;;;4.70;3.20;;;;;;;8.16;100.00;102564.06;5062749;28;20048;-28
2022/03/28 08:32:46;;;;;;;5.32;3.50;;;;;;;8.22;100.00;102559.44;5062570;28;20453;-28
2022/03/28 08:35:14;;;;;;;4.18;2.92;;;;;;;8.25;100.00;102562.59;5060697;28;20060;-28
2022/03/28 08:37:42;;;;;;;4.80;3.60;;;;;;;8.26;100.00;102571.78;5065593;28;20409;-29
2022/03/28 08:40:13;;;;;;;5.25;3.40;;;;;;;8.16;100.00;102561.28;5059373;28;20106;-28
2022/03/28 08:42:42;;;;;;;4.45;3.33;;;;;;;8.22;100.00;102559.44;5065966;28;20092;-29
2022/03/28 08:45:14;;;;;;;3.75;2.97;;;;;;;8.34;100.00;102563.13;5060202;28;20048;-27
2022/03/28 08:47:44;;;;;;;4.97;3.37;;;;;;;8.46;100.00;102571.44;5064421;28;20048;-28
2022/03/28 08:50:33;;;;;;;6.10;4.07;;;;;;;8.55;100.00;102565.28;5060011;28;20508;-28
2022/03/28 08:53:01;;;;;;;4.80;3.33;;;;;;;8.55;100.00;102559.72;5064746;28;20079;-27
2022/03/28 08:55:29;;;;;;;3.90;2.85;;;;;;;8.62;100.00;102551.22;5058411;28;20044;-29
2022/03/28 08:57:57;;;;;;;4.45;3.30;;;;;;;8.73;100.00;102555.09;5063414;28;20048;-28
2022/03/28 09:00:25;;;;;;;4.35;3.08;;;;;;;8.84;100.00;102556.97;5059808;28;20057;-28
2022/03/28 09:02:57;;;;;;;4.97;3.75;;;;;;;8.94;100.00;102551.66;5064802;28;20032;-27
2022/03/28 09:05:30;;;;;;;5.07;3.60;;;;;;;9.04;100.00;102557.41;5059244;28;20052;-29
2022/03/28 09:08:00;;;;;;;5.47;3.60;;;;;;;9.14;100.00;102551.22;5063966;28;20409;-30
2022/03/28 09:10:32;;;;;;;4.63;3.63;;;;;;;9.22;100.00;102556.38;5059821;28;20054;-28
2022/03/28 09:13:02;;;;;;;4.40;2.95;;;;;;;9.30;100.00;102556.81;5056627;28;20086;-27
2022/03/28 09:15:44;;;;;;;4.47;3.38;;;;;;;9.38;100.00;102551.97;5060097;28;20048;-29
2022/03/28 09:18:20;;;;;;;4.35;3.15;;;;;;;9.35;100.00;102549.66;5057132;28;20056;-29
2022/03/28 09:20:49;;;;;;;4.70;3.03;;;;;;;9.33;100.00;102547.97;5058903;28;20055;-29
2022/03/28 09:23:37;;;;;;;4.43;3.25;;;;;;;9.37;100.00;102542.75;5063633;28;20053;-29
2022/03/28 09:26:12;;;;;;;5.30;3.70;;;;;;;9.31;100.00;102535.38;5042981;28;20049;-29
2022/03/28 09:28:46;;;;;;;5.25;4.10;;;;;;;9.40;100.00;102533.88;5064694;28;20476;-28
2022/03/28 09:31:22;;;;;;;5.95;3.67;;;;;;;9.49;100.00;102537.09;5060622;28;20047;-28
2022/03/28 09:34:03;;;;;;;6.57;3.88;;;;;;;9.59;100.00;102538.13;5065683;28;20048;-34
2022/03/28 09:36:38;;;;;;;4.30;3.20;;;;;;;9.70;100.00;102541.09;5059382;28;20119;-29
2022/03/28 09:39:09;;;;;;;4.28;3.15;;;;;;;9.81;100.00;102538.22;5065860;28;20047;-32
2022/03/28 09:41:37;;;;;;;4.30;2.75;;;;;;;9.95;100.00;102530.38;5060247;28;20236;-28
2022/03/28 09:44:07;;;;;;;7.28;3.47;;;;;;;10.08;100.00;102532.81;5064852;28;20045;-34
2022/03/28 09:46:37;;;;;;;4.70;3.42;;;;;;;10.17;100.00;102530.44;5061552;28;20056;-33
2022/03/28 09:49:05;;;;;;;5.18;3.60;;;;;;;10.26;100.00;102529.78;5065153;28;20045;-29
2022/03/28 09:51:36;;;;;;;4.43;3.20;;;;;;;10.33;100.00;102530.44;5062299;28;20048;-29
2022/03/28 09:54:04;;;;;;;4.50;3.15;;;;;;;10.39;100.00;102531.38;5064716;28;20425;-28
2022/03/28 09:56:33;;;;;;;4.70;3.38;;;;;;;10.49;100.00;102528.72;5064605;28;20049;-30
2022/03/28 09:59:03;;;;;;;4.97;3.78;;;;;;;10.57;100.00;102531.06;5057758;28;20051;-34
2022/03/28 10:01:35;;;;;;;4.90;3.17;;;;;;;10.64;100.00;102528.91;5060612;28;20106;-34
2022/03/28 10:04:07;;;;;;;4.28;3.05;;;;;;;10.61;100.00;102528.56;5056713;28;20048;-29
2022/03/28 10:06:37;;;;;;;4.05;2.90;;;;;;;10.59;100.00;102528.03;5060792;28;20075;-29
2022/03/28 10:09:07;;;;;;;4.18;2.90;;;;;;;10.66;100.00;102529.50;5058560;28;20051;-28
2022/03/28 10:11:37;;;;;;;4.80;3.17;;;;;;;10.79;100.00;102521.84;5058689;28;20219;-29
2022/03/28 10:14:05;;;;;;;3.58;2.50;;;;;;;10.80;100.00;102531.88;5059159;28;20045;-28
2022/03/28 10:16:33;;;;;;;4.22;3.15;;;;;;;10.86;100.00;102526.13;5058893;28;20044;-29
2022/03/28 10:19:03;;;;;;;3.60;2.78;;;;;;;10.93;100.00;102523.97;5059102;28;20060;-29
2022/03/28 10:21:36;;;;;;;3.67;2.80;;;;;;;11.00;100.00;102510.63;5058545;28;20049;-29
2022/03/28 10:24:05;;;;;;;;;;;;;;;11.05;100.00;102512.66;5061853;28;20049;-29
2022/03/28 10:26:35;;;;;;;4.68;3.55;;;;;;;11.08;100.00;102505.69;5060849;28;19920;-29
2022/03/28 10:29:09;;;;;;;3.88;2.50;;;;;;;11.21;100.00;102499.69;5065157;28;20110;-30
2022/03/28 10:31:54;;;;;;;3.83;2.78;;;;;;;11.36;100.00;102497.91;5067030;28;20080;-29
2022/03/28 10:34:48;;;;;;;3.85;2.85;;;;;;;11.45;100.00;102500.22;5065667;28;20055;-31
2022/03/28 10:37:31;;;;;;;4.13;2.90;;;;;;;11.52;100.00;102503.66;5066726;28;20132;-29
2022/03/28 10:40:25;;;;;;;3.60;2.70;;;;;;;11.59;100.00;102495.91;5066200;28;20080;-37
2022/03/28 10:43:06;;;;;;;3.92;2.83;;;;;;;11.55;99.09;102494.72;5065148;28;20470;-29
2022/03/28 10:45:49;;;;;;;4.30;2.92;;;;;;;11.48;99.37;102494.94;5066953;28;20048;-29
2022/03/28 10:48:18;;;;;;;3.95;2.90;;;;;;;11.46;99.04;102485.13;5065398;28;20044;-29
2022/03/28 10:50:51;;;;;;;3.60;2.53;;;;;;;11.60;99.75;102490.00;5048565;28;20449;-29
2022/03/28 10:53:29;;;;;;;5.53;3.10;;;;;;;11.76;98.57;102473.38;5064409;28;20160;-29
2022/03/28 10:55:59;;;;;;;4.38;2.60;;;;;;;11.88;98.42;102471.25;5066573;28;20047;-30
2022/03/28 10:58:29;;;;;;;3.05;2.20;;;;;;;12.07;98.50;102466.91;5054841;28;20045;-29
2022/03/28 11:01:28;;;;;;;3.72;2.80;;;;;;;12.23;94.44;102476.22;5059020;28;20051;-29
2022/03/28 11:04:00;;;;;;;3.20;2.08;;;;;;;12.08;93.91;102466.63;5066988;28;20049;-29
2022/03/28 11:06:52;;;;;;;3.85;2.83;;;;;;;12.19;95.88;102461.13;5061412;28;20135;-30
2022/03/28 11:09:44;;;;;;;4.40;3.03;;;;;;;12.48;96.35;102458.72;5063048;28;20063;-30
2022/03/28 11:12:15;;;;;;;3.63;2.63;;;;;;;12.63;95.45;102459.63;5059586;28;20044;-28
2022/03/28 11:14:45;;;;;;;5.15;3.10;;;;;;;12.85;94.95;102465.03;5064436;28;20418;-34
2022/03/28 11:17:16;;;;;;;3.47;2.95;;;;;;;12.98;93.62;102458.09;5059559;28;20056;-30
2022/03/28 11:20:08;;;;;;;4.30;3.25;;;;;;;13.15;93.03;102450.31;5063871;28;20044;-34
2022/03/28 11:22:58;;;;;;;3.40;2.30;;;;;;;13.15;91.79;102450.31;5058644;28;20467;-33
2022/03/28 11:25:41;;;;;;;4.63;3.45;;;;;;;13.15;89.98;102441.91;5065034;28;20099;-34
2022/03/28 11:28:18;;;;;;;4.53;3.40;;;;;;;13.09;88.82;102440.16;5059310;28;20136;-30
2022/03/28 11:30:59;;;;;;;4.68;3.80;;;;;;;13.11;88.39;102440.72;5062450;28;20106;-31
2022/03/28 11:33:33;;;;;;;4.50;3.45;;;;;;;13.29;89.20;102440.22;5059132;28;20518;-30
2022/03/28 11:36:02;;;;;;;7.10;3.83;;;;;;;13.62;87.92;102447.22;5063694;28;20041;-33
2022/03/28 11:38:32;;;;;;;5.35;3.60;;;;;;;13.73;86.63;102445.28;5059145;28;20127;-28